Time;durP1;ratioP1;P1;durP2;ratioP2;P2;SDS_P1;SDS_P2;PMS_P1;PMS_P2;Temp;Humidity;BMP_temperature;BMP_pressure;BME280_temperature;BME280_humidity;BME280_pressure;Samples;Min_cycle;Max_cycle;Signal;HPM_P1;HPM_P2
2021/12/05 00:24:10;;;;;;;6.47;2.70;;;22.50;38.40;;;;;;5028428;28;20032;-46
2021/12/05 00:26:37;;;;;;;3.65;2.50;;;22.50;38.30;;;;;;5027420;28;20025;-47
2021/12/05 01:02:43;;;;;;;4.40;2.40;;;22.30;38.30;;;;;;5029268;28;20033;-46
2021/12/05 01:15:52;;;;;;;4.72;3.08;;;22.30;38.40;;;;;;5024396;28;20032;-47
2021/12/05 01:18:19;;;;;;;3.95;2.33;;;22.30;38.40;;;;;;5009826;28;20109;-46
2021/12/05 01:20:55;;;;;;;4.38;2.70;;;22.30;38.40;;;;;;5020771;28;20593;-47
2021/12/05 01:34:16;;;;;;;4.10;2.85;;;22.20;38.20;;;;;;5005938;28;20033;-46
2021/12/05 01:39:57;;;;;;;3.33;2.13;;;22.20;38.20;;;;;;5005856;28;20684;-48
2021/12/05 01:58:33;;;;;;;3.40;2.20;;;22.10;38.30;;;;;;5045361;28;20009;-47
2021/12/05 02:12:00;;;;;;;3.72;2.50;;;22.10;38.30;;;;;;5005584;28;20052;-47
2021/12/05 02:41:52;;;;;;;3.58;2.45;;;22.00;38.40;;;;;;5023373;28;20167;-48
2021/12/05 02:44:21;;;;;;;3.80;2.35;;;22.00;38.50;;;;;;5024741;28;20034;-46
2021/12/05 02:46:57;;;;;;;4.22;2.42;;;22.00;38.50;;;;;;5024228;28;20616;-47
2021/12/05 02:49:24;;;;;;;3.70;2.95;;;22.00;38.50;;;;;;5025301;28;20072;-47
2021/12/05 02:51:55;;;;;;;4.00;2.88;;;22.00;38.50;;;;;;5044468;28;20025;-47
2021/12/05 02:54:24;;;;;;;3.72;2.53;;;22.00;39.10;;;;;;5042845;28;20112;-46
2021/12/05 02:56:52;;;;;;;3.45;2.30;;;22.00;38.50;;;;;;5043207;28;20103;-46
2021/12/05 02:59:43;;;;;;;3.55;2.47;;;22.00;38.50;;;;;;5029690;28;20026;-46
2021/12/05 03:02:14;;;;;;;3.45;2.33;;;22.00;38.40;;;;;;5022808;28;20056;-47
2021/12/05 03:04:45;;;;;;;4.45;2.85;;;22.00;38.30;;;;;;5024326;28;20033;-46
2021/12/05 03:07:12;;;;;;;3.90;2.60;;;22.00;38.30;;;;;;5024494;28;20367;-47
2021/12/05 03:09:40;;;;;;;4.13;2.60;;;22.00;38.30;;;;;;5024064;28;20030;-47
2021/12/05 03:12:10;;;;;;;3.50;2.30;;;22.00;38.30;;;;;;5023813;28;20034;-46
2021/12/05 03:14:36;;;;;;;3.42;2.45;;;22.00;38.20;;;;;;5024554;28;20030;-45
2021/12/05 03:17:02;;;;;;;3.47;2.40;;;22.00;38.30;;;;;;5029144;28;20414;-47
2021/12/05 03:19:27;;;;;;;4.70;2.88;;;22.00;38.20;;;;;;5029845;28;20028;-46
2021/12/05 03:21:53;;;;;;;4.30;2.85;;;21.90;38.90;;;;;;5029456;28;20040;-47
2021/12/05 03:24:21;;;;;;;3.83;2.42;;;21.90;38.20;;;;;;5030527;28;20025;-46
2021/12/05 03:26:51;;;;;;;3.60;2.35;;;22.00;38.20;;;;;;5030547;28;20100;-47
2021/12/05 03:29:20;;;;;;;3.55;2.65;;;21.90;38.20;;;;;;5031098;28;20021;-46
2021/12/05 03:31:46;;;;;;;3.97;2.65;;;21.90;38.20;;;;;;5030399;28;20040;-45
2021/12/05 03:34:14;;;;;;;3.55;2.40;;;21.90;38.20;;;;;;5030021;28;20031;-46
2021/12/05 03:36:44;;;;;;;3.70;2.55;;;21.90;38.20;;;;;;5031028;28;20028;-46
2021/12/05 03:39:11;;;;;;;3.80;2.63;;;21.90;38.20;;;;;;5030879;28;20022;-46
2021/12/05 03:41:39;;;;;;;3.30;2.50;;;21.90;38.20;;;;;;5030522;28;20029;-45
2021/12/05 03:44:07;;;;;;;3.60;2.50;;;21.90;38.20;;;;;;5028765;28;20230;-47
2021/12/05 03:46:33;;;;;;;4.07;2.50;;;21.90;38.20;;;;;;5030802;28;20030;-51
2021/12/05 03:49:03;;;;;;;3.80;2.55;;;21.90;38.20;;;;;;5029241;28;20116;-46
2021/12/05 03:51:32;;;;;;;3.78;2.17;;;21.90;38.20;;;;;;5028272;28;20017;-47
2021/12/05 03:53:59;;;;;;;3.60;2.35;;;21.90;38.20;;;;;;5030485;28;20030;-46
2021/12/05 03:56:25;;;;;;;3.97;2.47;;;21.90;38.20;;;;;;5030525;28;20080;-48
2021/12/05 03:58:52;;;;;;;3.70;2.47;;;21.80;38.10;;;;;;5030402;28;20033;-45
2021/12/05 04:01:18;;;;;;;4.05;2.45;;;21.90;38.20;;;;;;5030420;28;20061;-47
2021/12/05 04:03:45;;;;;;;3.88;2.63;;;21.90;38.20;;;;;;5029626;28;20034;-47
2021/12/05 04:06:14;;;;;;;4.30;2.80;;;21.80;38.10;;;;;;5030588;28;20093;-46
2021/12/05 04:08:41;;;;;;;4.13;2.78;;;21.90;38.20;;;;;;5029894;28;20044;-47
2021/12/05 04:11:11;;;;;;;3.50;2.17;;;21.90;38.20;;;;;;5030304;28;20030;-47
2021/12/05 04:13:36;;;;;;;3.50;2.33;;;21.90;38.20;;;;;;5029690;28;20112;-46
2021/12/05 04:16:06;;;;;;;3.85;2.45;;;21.80;38.10;;;;;;5030523;28;20708;-46
2021/12/05 04:18:32;;;;;;;3.60;2.60;;;21.90;38.20;;;;;;5030008;28;20080;-46
2021/12/05 04:21:03;;;;;;;3.22;2.20;;;21.80;38.10;;;;;;5028362;28;20925;-46
2021/12/05 04:23:30;;;;;;;3.65;2.35;;;21.80;38.10;;;;;;5029015;28;20041;-47
2021/12/05 04:25:56;;;;;;;3.80;2.40;;;21.80;38.10;;;;;;5029894;28;20034;-47
2021/12/05 04:28:23;;;;;;;3.45;2.50;;;21.80;38.10;;;;;;5025750;28;20033;-45
2021/12/05 04:30:50;;;;;;;3.83;2.53;;;21.80;38.10;;;;;;5025886;28;20029;-47
2021/12/05 04:33:16;;;;;;;3.30;2.35;;;21.80;38.10;;;;;;5025132;28;20040;-47
2021/12/05 04:35:43;;;;;;;3.70;2.50;;;21.80;38.10;;;;;;5027149;28;20026;-47
2021/12/05 04:38:09;;;;;;;4.20;2.63;;;21.80;38.90;;;;;;5026673;28;20523;-46
2021/12/05 04:40:35;;;;;;;3.83;2.55;;;21.80;38.30;;;;;;5027214;28;20045;-46
2021/12/05 04:43:02;;;;;;;3.70;2.38;;;21.80;38.30;;;;;;5026502;28;20038;-46
2021/12/05 04:45:30;;;;;;;3.63;2.33;;;21.80;38.30;;;;;;5027110;28;20083;-48
2021/12/05 04:47:57;;;;;;;3.75;2.55;;;21.80;38.20;;;;;;5026651;28;20060;-47
2021/12/05 04:50:24;;;;;;;3.67;2.55;;;21.70;38.20;;;;;;5035500;28;20108;-47
2021/12/05 04:52:51;;;;;;;3.67;2.20;;;21.70;38.20;;;;;;5046302;28;20029;-46
2021/12/05 04:55:17;;;;;;;3.88;2.30;;;21.80;38.10;;;;;;5046297;28;20033;-45
2021/12/05 04:57:44;;;;;;;3.60;2.35;;;21.70;38.20;;;;;;5046978;28;20558;-47
2021/12/05 05:00:20;;;;;;;3.60;2.50;;;21.70;38.20;;;;;;5039252;28;20033;-47
2021/12/05 05:02:46;;;;;;;3.83;2.25;;;21.70;38.80;;;;;;5025820;28;20033;-47
2021/12/05 05:05:13;;;;;;;3.90;2.67;;;21.70;38.20;;;;;;5026694;28;20061;-45
2021/12/05 05:07:42;;;;;;;3.65;2.40;;;21.70;38.10;;;;;;5025097;28;20486;-47
2021/12/05 05:10:12;;;;;;;3.80;2.55;;;21.70;38.10;;;;;;5025696;28;20056;-47
2021/12/05 05:12:38;;;;;;;3.45;2.28;;;21.70;38.20;;;;;;5025821;28;20042;-47
2021/12/05 05:15:04;;;;;;;3.45;2.58;;;21.70;38.10;;;;;;5025897;28;20349;-47
2021/12/05 05:17:30;;;;;;;3.28;2.25;;;21.70;38.20;;;;;;5022544;28;20062;-47
2021/12/05 05:20:01;;;;;;;3.80;2.05;;;21.70;38.20;;;;;;5004668;28;20118;-47
2021/12/05 05:41:37;;;;;;;3.95;2.47;;;21.70;38.20;;;;;;5025648;28;20076;-46
2021/12/05 05:46:17;;;;;;;3.30;2.00;;;21.60;38.10;;;;;;5025799;28;20079;-47
2021/12/05 05:48:52;;;;;;;3.47;2.30;;;21.60;38.10;;;;;;5025239;28;20029;-46
2021/12/05 05:51:18;;;;;;;3.53;2.40;;;21.60;38.10;;;;;;5042305;28;20032;-48
2021/12/05 05:53:47;;;;;;;4.00;2.50;;;21.60;38.20;;;;;;5045216;28;20299;-48
2021/12/05 05:56:19;;;;;;;3.42;2.05;;;21.60;38.20;;;;;;5043441;28;20028;-47
2021/12/05 06:01:20;;;;;;;3.70;2.33;;;21.60;38.20;;;;;;5045206;28;20544;-46
2021/12/05 06:03:47;;;;;;;3.55;2.60;;;21.60;38.20;;;;;;5031909;28;20037;-46
2021/12/05 06:06:14;;;;;;;3.67;2.50;;;21.60;38.20;;;;;;5025203;28;20037;-46
2021/12/05 06:08:42;;;;;;;3.60;2.40;;;21.60;38.20;;;;;;5025486;28;20109;-48
2021/12/05 06:11:11;;;;;;;3.40;2.25;;;21.60;38.30;;;;;;5025086;28;20029;-45
2021/12/05 06:13:38;;;;;;;3.38;2.17;;;21.60;38.30;;;;;;5024820;28;20123;-46
2021/12/05 06:16:06;;;;;;;3.60;2.40;;;21.60;38.30;;;;;;5025606;28;20731;-47
2021/12/05 06:18:32;;;;;;;3.70;2.35;;;21.60;38.40;;;;;;5024769;28;20486;-46
2021/12/05 06:20:58;;;;;;;3.85;2.40;;;21.60;38.50;;;;;;5023048;28;20072;-45
2021/12/05 06:23:25;;;;;;;3.65;2.42;;;21.60;38.50;;;;;;5024560;28;20045;-45
2021/12/05 06:25:51;;;;;;;3.72;2.53;;;21.60;38.60;;;;;;5023125;28;20626;-45
2021/12/05 06:28:25;;;;;;;3.67;2.10;;;21.60;38.60;;;;;;5024908;28;20056;-45
2021/12/05 06:47:03;;;;;;;3.40;2.05;;;21.90;38.70;;;;;;5024577;28;20088;-46
2021/12/05 06:49:29;;;;;;;3.10;1.90;;;22.00;38.70;;;;;;5026359;28;20060;-47
2021/12/05 06:51:55;;;;;;;3.05;1.98;;;22.10;38.60;;;;;;5025871;28;20029;-46
2021/12/05 06:54:22;;;;;;;3.30;2.03;;;22.20;38.60;;;;;;5024724;28;20032;-47
2021/12/05 06:56:48;;;;;;;3.35;2.10;;;22.20;38.40;;;;;;5024707;28;20021;-46
2021/12/05 06:59:14;;;;;;;3.15;2.00;;;22.30;38.40;;;;;;5024689;28;20087;-47
2021/12/05 07:01:40;;;;;;;3.50;2.17;;;22.30;38.40;;;;;;5024517;28;20033;-46
2021/12/05 07:04:15;;;;;;;3.58;2.17;;;22.40;38.20;;;;;;5009278;28;20038;-47
2021/12/05 07:06:42;;;;;;;2.80;1.80;;;22.50;38.20;;;;;;5004969;28;20026;-47
2021/12/05 07:09:09;;;;;;;3.08;1.73;;;22.50;38.20;;;;;;5005129;28;20104;-47
2021/12/05 07:16:50;;;;;;;3.58;2.05;;;22.70;37.90;;;;;;5004578;28;20033;-47
2021/12/05 07:19:32;;;;;;;2.97;1.83;;;22.80;37.80;;;;;;5020497;28;20204;-46
2021/12/05 07:22:03;;;;;;;3.33;2.00;;;22.90;38.50;;;;;;5023720;28;20026;-46
2021/12/05 07:24:49;;;;;;;3.45;1.88;;;23.00;37.70;;;;;;5023443;28;20053;-46
2021/12/05 07:43:42;;;;;;;4.45;1.98;;;23.40;37.20;;;;;;5022803;28;20022;-46
2021/12/05 07:46:08;;;;;;;3.42;1.98;;;23.40;37.10;;;;;;5023359;28;20025;-46
2021/12/05 07:48:37;;;;;;;3.13;1.90;;;23.50;37.00;;;;;;5022917;28;20041;-46
2021/12/05 07:51:13;;;;;;;2.75;1.75;;;23.50;36.90;;;;;;5027480;28;20115;-47
2021/12/05 07:56:14;;;;;;;4.22;2.00;;;23.60;36.90;;;;;;5022753;28;20115;-46
2021/12/05 08:14:57;;;;;;;3.13;1.92;;;23.90;36.90;;;;;;5040272;28;20035;-45
2021/12/05 08:17:23;;;;;;;4.35;2.15;;;23.90;37.00;;;;;;5025329;28;20112;-47
2021/12/05 08:19:48;;;;;;;2.95;1.95;;;23.90;37.20;;;;;;5025566;28;20104;-46
2021/12/05 08:22:15;;;;;;;4.03;2.03;;;23.90;37.20;;;;;;5023655;28;20034;-46
2021/12/05 08:24:42;;;;;;;3.22;2.05;;;24.00;37.40;;;;;;5026071;28;20088;-47
2021/12/05 08:27:12;;;;;;;3.65;2.15;;;24.00;37.60;;;;;;5016781;28;20061;-46
2021/12/05 08:29:52;;;;;;;3.30;2.28;;;24.00;37.90;;;;;;5011928;28;20034;-46
2021/12/05 08:35:03;;;;;;;3.90;2.42;;;24.10;37.90;;;;;;5024815;28;20025;-47
2021/12/05 10:09:33;;;;;;;3.50;2.03;;;24.50;37.30;;;;;;5024435;28;20033;-51
2021/12/05 10:37:20;;;;;;;6.00;2.67;;;24.40;37.00;;;;;;5024448;28;20036;-47
2021/12/05 10:39:59;;;;;;;5.13;2.97;;;24.40;37.00;;;;;;5023999;28;20032;-48
2021/12/05 10:42:38;;;;;;;6.00;2.67;;;24.40;36.90;;;;;;5024090;28;20025;-47
2021/12/05 10:45:08;;;;;;;5.18;2.40;;;24.40;36.90;;;;;;5023479;28;20116;-48
2021/12/05 10:47:45;;;;;;;5.70;2.65;;;24.40;36.90;;;;;;5023658;28;20030;-46
2021/12/05 10:50:38;;;;;;;5.53;3.00;;;24.40;36.90;;;;;;5030781;28;20021;-47
2021/12/05 10:53:43;;;;;;;6.05;3.10;;;24.40;36.90;;;;;;5043220;28;20056;-46
2021/12/05 10:56:21;;;;;;;5.47;2.88;;;24.40;36.90;;;;;;5043999;28;20456;-47
2021/12/05 10:58:52;;;;;;;6.53;3.10;;;24.40;36.90;;;;;;5042703;28;20024;-46
2021/12/05 11:01:24;;;;;;;5.70;2.42;;;24.40;36.90;;;;;;5024988;28;20505;-46
2021/12/05 11:03:53;;;;;;;7.38;3.40;;;24.40;37.00;;;;;;5013249;28;20037;-47
2021/12/05 11:06:25;;;;;;;6.30;2.88;;;24.40;36.90;;;;;;5004077;28;20083;-46
2021/12/05 11:09:00;;;;;;;5.00;2.47;;;24.40;36.90;;;;;;5021221;28;20033;-46
2021/12/05 11:11:27;;;;;;;7.38;3.25;;;24.40;36.80;;;;;;5024237;28;20163;-47
2021/12/05 11:13:54;;;;;;;5.78;3.15;;;24.40;36.80;;;;;;5022920;28;20036;-47
2021/12/05 11:16:50;;;;;;;7.85;3.47;;;24.40;36.70;;;;;;5023982;28;20417;-47
2021/12/05 11:19:38;;;;;;;6.03;2.95;;;24.40;36.80;;;;;;5022003;28;20057;-46
2021/12/05 11:22:15;;;;;;;5.22;2.97;;;24.40;36.70;;;;;;5023417;28;20512;-47
2021/12/05 11:25:04;;;;;;;7.10;3.15;;;24.30;36.80;;;;;;5021970;28;20660;-47
2021/12/05 11:27:38;;;;;;;5.38;3.00;;;24.30;36.80;;;;;;5023619;28;20079;-47
2021/12/05 11:30:31;;;;;;;8.02;3.83;;;24.30;37.00;;;;;;5023453;28;20029;-46
2021/12/05 11:33:07;;;;;;;6.22;3.47;;;24.30;37.20;;;;;;5022817;28;20508;-46
2021/12/05 11:35:37;;;;;;;6.07;3.17;;;24.30;37.40;;;;;;5023712;28;20037;-46
2021/12/05 11:38:25;;;;;;;7.45;4.15;;;24.30;37.70;;;;;;5024523;28;20026;-48
2021/12/05 11:41:10;;;;;;;7.32;3.30;;;24.30;37.80;;;;;;5026095;28;20026;-46
2021/12/05 11:43:43;;;;;;;9.38;3.78;;;24.20;37.80;;;;;;5025896;28;20065;-47
2021/12/05 11:46:28;;;;;;;5.57;3.38;;;24.30;38.10;;;;;;5026066;28;20355;-45
2021/12/05 11:49:02;;;;;;;7.80;3.65;;;24.30;38.30;;;;;;5013094;28;20610;-46
2021/12/05 11:51:33;;;;;;;8.02;3.72;;;24.20;38.40;;;;;;5017576;28;20670;-47
2021/12/05 11:54:10;;;;;;;7.43;3.63;;;24.20;38.60;;;;;;5026089;28;20520;-47
2021/12/05 11:56:47;;;;;;;7.32;3.95;;;24.20;38.70;;;;;;5027212;28;20017;-47
2021/12/05 11:59:40;;;;;;;6.90;3.42;;;24.20;38.60;;;;;;5024918;28;20033;-47
2021/12/05 12:02:14;;;;;;;6.57;3.10;;;24.20;38.70;;;;;;5025451;28;20046;-47
2021/12/05 12:04:54;;;;;;;7.93;3.65;;;24.20;38.90;;;;;;5025598;28;20053;-46
2021/12/05 12:07:38;;;;;;;6.88;3.25;;;24.20;39.10;;;;;;5026358;28;20029;-47
2021/12/05 12:10:09;;;;;;;6.82;3.38;;;24.20;39.10;;;;;;5026185;28;20037;-46
2021/12/05 12:12:37;;;;;;;7.07;3.40;;;24.20;39.10;;;;;;5025734;28;20060;-46
2021/12/05 12:15:04;;;;;;;6.47;3.00;;;24.10;39.10;;;;;;5022380;28;20855;-49
2021/12/05 12:17:29;;;;;;;5.55;2.97;;;24.10;39.10;;;;;;5022944;28;20029;-48
2021/12/05 12:19:55;;;;;;;6.25;3.38;;;24.10;39.20;;;;;;5021397;28;20041;-48
2021/12/05 12:22:23;;;;;;;6.68;3.33;;;24.10;39.30;;;;;;5013095;28;20500;-47
2021/12/05 12:25:00;;;;;;;6.72;3.28;;;24.10;39.30;;;;;;5016695;28;20110;-46
2021/12/05 12:27:26;;;;;;;5.78;2.85;;;24.10;39.30;;;;;;5015863;28;20036;-47
2021/12/05 12:29:57;;;;;;;7.15;3.55;;;24.10;39.30;;;;;;5015714;28;20057;-47
2021/12/05 12:32:29;;;;;;;5.97;2.97;;;24.10;39.30;;;;;;5019208;28;20033;-47
2021/12/05 12:35:12;;;;;;;5.70;3.38;;;24.10;39.20;;;;;;5025331;28;20037;-46
2021/12/05 12:38:07;;;;;;;5.93;3.00;;;24.10;39.30;;;;;;5026671;28;20025;-47
2021/12/05 12:40:39;;;;;;;6.85;3.63;;;24.10;39.30;;;;;;5026325;28;20041;-46
2021/12/05 12:43:07;;;;;;;6.55;3.17;;;24.10;40.00;;;;;;5025964;28;20033;-46
2021/12/05 12:45:41;;;;;;;5.28;3.13;;;24.10;39.20;;;;;;5026080;28;20207;-46
2021/12/05 12:48:16;;;;;;;6.20;3.35;;;24.00;39.10;;;;;;5025209;28;20561;-47
2021/12/05 12:50:51;;;;;;;7.32;3.50;;;24.10;39.30;;;;;;5037552;28;20086;-46
2021/12/05 12:53:29;;;;;;;7.25;3.72;;;24.00;39.20;;;;;;5033081;28;20030;-46
2021/12/05 12:56:02;;;;;;;6.80;3.22;;;24.10;39.20;;;;;;5026143;28;20025;-46
2021/12/05 12:58:59;;;;;;;7.93;3.38;;;24.00;39.10;;;;;;5026175;28;20075;-47
2021/12/05 13:12:40;;;;;;;5.72;3.10;;;24.00;38.80;;;;;;5025623;28;20049;-46
2021/12/05 13:15:29;;;;;;;6.78;3.20;;;23.90;38.80;;;;;;5025768;28;20021;-46
2021/12/05 13:17:59;;;;;;;6.93;3.35;;;23.90;38.80;;;;;;5026170;28;20033;-46
2021/12/05 13:20:57;;;;;;;8.23;3.30;;;23.90;38.80;;;;;;5025324;28;20029;-46
2021/12/05 13:23:38;;;;;;;5.07;2.88;;;23.90;38.80;;;;;;5025521;28;20113;-46
2021/12/05 13:26:30;;;;;;;6.80;3.45;;;23.90;38.80;;;;;;5025574;28;20748;-46
2021/12/05 13:28:55;;;;;;;7.57;3.78;;;23.80;38.80;;;;;;5022240;28;20564;-46
2021/12/05 13:31:30;;;;;;;7.78;3.65;;;23.80;38.80;;;;;;5025494;28;20037;-47
2021/12/05 13:34:16;;;;;;;5.95;3.22;;;23.80;38.90;;;;;;5015882;28;20091;-46
2021/12/05 13:36:45;;;;;;;6.18;3.17;;;23.80;38.90;;;;;;5010662;28;20567;-46
2021/12/05 13:39:38;;;;;;;6.35;2.97;;;23.80;38.80;;;;;;5024754;28;20497;-46
2021/12/05 13:42:28;;;;;;;6.15;3.15;;;23.70;38.90;;;;;;5013615;28;20068;-46
2021/12/05 13:45:06;;;;;;;7.57;3.70;;;23.80;39.00;;;;;;5022640;28;20033;-46
2021/12/05 13:47:47;;;;;;;7.88;3.88;;;23.70;39.10;;;;;;5022190;28;20022;-47
2021/12/05 13:50:19;;;;;;;6.90;3.38;;;23.70;39.90;;;;;;5032627;28;20551;-47
2021/12/05 13:53:21;;;;;;;7.43;3.33;;;23.70;39.20;;;;;;5028951;28;20029;-47
2021/12/05 13:55:53;;;;;;;7.25;3.33;;;23.60;39.10;;;;;;5024097;28;20037;-46
2021/12/05 13:58:22;;;;;;;7.88;3.67;;;23.70;39.40;;;;;;5024907;28;20087;-47
2021/12/05 14:01:12;;;;;;;5.65;2.80;;;23.70;39.30;;;;;;5024479;28;20103;-46
2021/12/05 14:03:46;;;;;;;5.85;2.83;;;23.70;39.30;;;;;;5024324;28;20030;-46
2021/12/05 14:06:42;;;;;;;5.38;2.70;;;23.70;39.40;;;;;;5024872;28;20634;-46
2021/12/05 14:09:35;;;;;;;5.78;2.80;;;23.70;39.40;;;;;;5024496;28;20630;-46
2021/12/05 14:12:07;;;;;;;6.95;3.25;;;23.70;39.40;;;;;;5024148;28;20060;-46
2021/12/05 14:14:37;;;;;;;5.55;2.50;;;23.70;39.40;;;;;;5022967;28;20513;-45
2021/12/05 14:17:07;;;;;;;5.53;3.10;;;23.70;39.40;;;;;;5024063;28;20026;-46
2021/12/05 14:19:36;;;;;;;5.50;2.63;;;23.70;39.30;;;;;;5022275;28;20017;-47
2021/12/05 14:22:05;;;;;;;7.82;3.33;;;23.60;39.20;;;;;;5024508;28;20428;-46
2021/12/05 14:24:35;;;;;;;5.45;2.80;;;23.70;39.40;;;;;;5023802;28;20021;-46
2021/12/05 14:27:07;;;;;;;6.78;3.22;;;23.70;39.40;;;;;;5024362;28;20049;-46
2021/12/05 14:29:37;;;;;;;6.35;2.80;;;23.70;39.40;;;;;;5023818;28;20034;-49
2021/12/05 14:32:33;;;;;;;5.68;2.78;;;23.70;39.40;;;;;;5022886;28;20423;-46
2021/12/05 14:35:13;;;;;;;5.97;3.08;;;23.60;39.40;;;;;;5022698;28;20550;-46
2021/12/05 14:37:41;;;;;;;5.63;2.35;;;23.60;39.30;;;;;;5008582;28;20057;-46
2021/12/05 14:40:19;;;;;;;5.97;2.50;;;23.60;39.30;;;;;;5015226;28;20516;-46
2021/12/05 14:42:47;;;;;;;4.68;1.88;;;23.70;39.40;;;;;;5009678;28;20521;-46
2021/12/05 14:45:26;;;;;;;5.13;2.65;;;23.60;39.30;;;;;;5016944;28;20026;-45
2021/12/05 14:47:54;;;;;;;5.88;2.67;;;23.60;39.20;;;;;;5022479;28;20033;-46
2021/12/05 14:50:27;;;;;;;5.38;2.17;;;23.70;39.30;;;;;;5014187;28;20044;-46
2021/12/05 14:52:56;;;;;;;4.03;1.92;;;23.60;39.20;;;;;;5020746;28;20021;-46
2021/12/05 14:55:24;;;;;;;5.70;2.17;;;23.60;39.10;;;;;;5021348;28;20063;-45
2021/12/05 14:57:56;;;;;;;5.68;2.20;;;23.60;39.10;;;;;;5020464;28;20025;-46
2021/12/05 15:00:49;;;;;;;;;;;23.60;39.00;;;;;;5020891;28;20037;-46
2021/12/05 15:03:19;;;;;;;3.80;1.92;;;23.60;39.00;;;;;;5005582;28;19905;-45
2021/12/05 15:05:53;;;;;;;4.47;2.20;;;23.60;39.00;;;;;;5002395;28;20117;-47
2021/12/05 15:08:21;;;;;;;10.43;2.20;;;23.60;39.00;;;;;;5008376;28;20022;-48
2021/12/05 15:10:53;;;;;;;4.85;2.03;;;23.60;39.20;;;;;;5021980;28;20393;-47
2021/12/05 15:13:19;;;;;;;4.30;1.95;;;23.60;39.20;;;;;;5015394;28;20388;-48
2021/12/05 15:15:46;;;;;;;4.28;2.10;;;23.60;39.20;;;;;;5022349;28;20030;-46
2021/12/05 15:18:18;;;;;;;5.78;2.30;;;23.60;39.30;;;;;;5008838;28;20109;-47
2021/12/05 15:20:46;;;;;;;8.68;3.00;;;23.60;39.50;;;;;;5019860;28;20448;-46
2021/12/05 15:23:14;;;;;;;11.27;5.03;;;23.60;40.00;;;;;;5019847;28;20049;-47
2021/12/05 15:25:42;;;;;;;12.82;6.18;;;23.60;40.90;;;;;;5012201;28;20033;-47
2021/12/05 15:28:09;;;;;;;15.90;6.50;;;23.60;41.70;;;;;;5012704;28;20026;-46
2021/12/05 15:30:44;;;;;;;18.00;6.97;;;23.60;42.10;;;;;;5011298;28;20026;-47
2021/12/05 15:33:15;;;;;;;19.98;8.35;;;23.60;42.70;;;;;;5012462;28;20036;-47
2021/12/05 15:35:43;;;;;;;15.13;7.20;;;23.70;42.90;;;;;;5013604;28;20035;-46
2021/12/05 15:38:13;;;;;;;13.82;6.43;;;23.70;42.70;;;;;;5011100;28;20026;-46
2021/12/05 15:40:43;;;;;;;11.73;5.97;;;23.70;42.40;;;;;;5036655;28;20124;-46
2021/12/05 15:43:12;;;;;;;11.27;5.72;;;23.70;42.40;;;;;;5009620;28;20502;-47
2021/12/05 15:45:41;;;;;;;11.65;6.20;;;23.70;41.90;;;;;;5017924;28;20124;-47
2021/12/05 15:48:07;;;;;;;10.98;6.25;;;23.70;41.80;;;;;;5008579;28;20037;-47
2021/12/05 15:50:35;;;;;;;10.63;5.18;;;23.70;41.70;;;;;;5007026;28;20026;-47
2021/12/05 15:53:12;;;;;;;12.20;6.00;;;23.70;41.50;;;;;;5006918;28;20018;-46
2021/12/05 15:55:40;;;;;;;11.35;5.32;;;23.70;41.30;;;;;;5004307;28;20026;-48
2021/12/05 15:58:11;;;;;;;9.02;4.68;;;23.70;41.10;;;;;;5005002;28;20407;-47
2021/12/05 16:00:41;;;;;;;8.75;4.45;;;23.70;41.10;;;;;;5020986;28;20033;-47
2021/12/05 16:03:39;;;;;;;10.20;4.65;;;23.70;40.90;;;;;;5007939;28;20805;-46
2021/12/05 16:06:05;;;;;;;8.65;4.00;;;23.70;40.80;;;;;;5009403;28;20045;-47
2021/12/05 16:08:32;;;;;;;8.52;4.03;;;23.70;40.70;;;;;;5011594;28;20172;-47
2021/12/05 16:11:01;;;;;;;7.03;3.42;;;23.70;40.70;;;;;;5013113;28;20030;-47
2021/12/05 16:13:41;;;;;;;8.20;4.43;;;23.70;40.60;;;;;;5010928;28;20200;-46
2021/12/05 16:16:13;;;;;;;8.52;3.90;;;23.70;40.40;;;;;;5012596;28;20488;-47
2021/12/05 16:18:41;;;;;;;6.17;3.40;;;23.70;40.30;;;;;;5011869;28;20611;-47
2021/12/05 16:21:18;;;;;;;6.18;3.20;;;23.70;40.30;;;;;;5012019;28;20056;-46
2021/12/05 16:23:45;;;;;;;6.60;3.10;;;23.60;40.20;;;;;;5012332;28;20061;-47
2021/12/05 16:26:13;;;;;;;7.00;3.10;;;23.60;40.20;;;;;;5015478;28;20048;-47
2021/12/05 16:28:41;;;;;;;6.82;2.80;;;23.60;40.10;;;;;;5016142;28;20533;-47
2021/12/05 16:31:21;;;;;;;5.88;2.53;;;23.70;40.20;;;;;;5038705;28;20116;-47
2021/12/05 16:33:56;;;;;;;6.15;2.60;;;23.60;40.10;;;;;;5024360;28;20540;-46
2021/12/05 16:36:31;;;;;;;5.07;2.67;;;23.60;40.10;;;;;;5026225;28;20104;-47
2021/12/05 16:39:11;;;;;;;6.13;2.67;;;23.60;40.00;;;;;;5017511;28;20033;-47
2021/12/05 16:41:41;;;;;;;5.63;2.63;;;23.60;40.00;;;;;;5014115;28;20037;-46
2021/12/05 16:44:12;;;;;;;6.05;2.92;;;23.60;40.00;;;;;;5014889;28;20039;-47
2021/12/05 16:46:51;;;;;;;5.97;2.83;;;23.60;40.00;;;;;;5014962;28;20057;-46
2021/12/05 16:49:23;;;;;;;5.90;2.10;;;23.60;40.00;;;;;;5014687;28;20044;-47
2021/12/05 16:51:53;;;;;;;5.13;2.60;;;23.50;40.00;;;;;;5015116;28;20042;-48
2021/12/05 16:54:35;;;;;;;6.22;2.90;;;23.50;40.00;;;;;;5014609;28;20068;-47
2021/12/05 16:57:18;;;;;;;4.63;1.95;;;23.50;40.00;;;;;;5021660;28;20055;-47
2021/12/05 16:59:50;;;;;;;7.60;2.88;;;23.50;40.00;;;;;;5010313;28;20057;-48
2021/12/05 17:02:24;;;;;;;4.70;2.30;;;23.50;39.90;;;;;;5012498;28;20563;-47
2021/12/05 17:05:26;;;;;;;5.07;2.30;;;23.50;40.00;;;;;;5026004;28;20033;-47
2021/12/05 17:10:34;;;;;;;4.38;1.95;;;23.50;40.60;;;;;;5026765;28;20116;-48
2021/12/05 17:13:14;;;;;;;6.38;2.05;;;23.50;40.00;;;;;;5023948;28;20824;-46
2021/12/05 17:15:51;;;;;;;3.85;1.85;;;23.50;40.00;;;;;;5006081;28;20033;-46
2021/12/05 17:18:29;;;;;;;4.88;1.70;;;23.50;40.00;;;;;;5023794;28;20021;-46
2021/12/05 17:21:21;;;;;;;5.47;2.28;;;23.50;40.00;;;;;;5022555;28;20048;-46
2021/12/05 17:23:58;;;;;;;6.43;1.90;;;23.50;40.10;;;;;;5023122;28;20146;-47
2021/12/05 17:26:24;;;;;;;4.10;2.28;;;23.50;40.10;;;;;;5022841;28;20033;-47
2021/12/05 17:29:19;;;;;;;4.72;2.03;;;23.40;40.00;;;;;;5023486;28;20028;-47
2021/12/05 17:31:55;;;;;;;5.38;1.98;;;23.50;40.10;;;;;;5021212;28;20068;-45
2021/12/05 17:34:29;;;;;;;4.57;1.90;;;23.40;40.80;;;;;;5022198;28;20440;-45
2021/12/05 17:37:07;;;;;;;4.00;2.20;;;23.40;40.20;;;;;;5023553;28;20045;-46
2021/12/05 17:39:36;;;;;;;3.90;2.05;;;23.40;40.20;;;;;;5024106;28;20030;-45
2021/12/05 17:42:06;;;;;;;4.43;1.63;;;23.40;40.20;;;;;;5023149;28;20586;-46
2021/12/05 17:44:32;;;;;;;3.55;1.73;;;23.50;40.20;;;;;;5024633;28;20021;-45
2021/12/05 17:47:03;;;;;;;4.15;1.90;;;23.50;40.10;;;;;;5022196;28;20096;-46
2021/12/05 17:49:32;;;;;;;4.85;2.03;;;23.40;40.00;;;;;;5022294;28;20028;-45
2021/12/05 17:51:59;;;;;;;3.97;1.70;;;23.50;40.00;;;;;;5023267;28;20075;-45
2021/12/05 17:54:35;;;;;;;5.72;2.15;;;23.50;40.10;;;;;;5024111;28;20669;-46
2021/12/05 17:57:16;;;;;;;4.43;1.92;;;23.50;40.10;;;;;;5023410;28;20105;-46
2021/12/05 18:05:34;;;;;;;3.38;1.80;;;23.50;40.30;;;;;;5025765;28;20053;-45
2021/12/05 18:08:15;;;;;;;4.80;1.90;;;23.50;40.20;;;;;;5020980;28;20068;-45
2021/12/05 18:10:48;;;;;;;4.13;2.05;;;23.50;40.10;;;;;;5023503;28;20036;-46
2021/12/05 18:13:15;;;;;;;5.75;2.15;;;23.50;40.00;;;;;;5019516;28;20026;-46
2021/12/05 18:15:48;;;;;;;7.05;2.92;;;23.50;40.60;;;;;;5024170;28;20029;-46
2021/12/05 18:18:16;;;;;;;6.63;3.17;;;23.50;41.90;;;;;;5022232;28;20128;-46
2021/12/05 18:20:42;;;;;;;7.93;3.42;;;23.50;42.00;;;;;;5021725;28;20646;-45
2021/12/05 18:23:09;;;;;;;6.50;3.80;;;23.50;41.90;;;;;;5023134;28;20036;-46
2021/12/05 18:25:37;;;;;;;7.38;3.90;;;23.50;41.80;;;;;;5023145;28;20029;-46
2021/12/05 18:28:05;;;;;;;6.55;3.80;;;23.50;41.90;;;;;;5020151;28;20068;-46
2021/12/05 18:30:31;;;;;;;6.38;3.53;;;23.50;41.60;;;;;;5022248;28;20032;-46
2021/12/05 18:33:00;;;;;;;5.97;3.33;;;23.50;41.60;;;;;;5022729;28;20029;-46
2021/12/05 18:35:31;;;;;;;6.90;3.97;;;23.50;41.70;;;;;;5020411;28;20026;-46
2021/12/05 18:38:05;;;;;;;5.90;3.65;;;23.50;41.60;;;;;;5023167;28;20021;-46
2021/12/05 18:40:31;;;;;;;6.55;3.67;;;23.50;41.50;;;;;;5021563;28;20079;-46
2021/12/05 18:42:59;;;;;;;5.32;3.38;;;23.50;41.30;;;;;;5022545;28;20025;-46
2021/12/05 18:45:28;;;;;;;6.65;4.10;;;23.50;41.20;;;;;;5022872;28;20036;-46
2021/12/05 18:47:54;;;;;;;6.68;3.90;;;23.50;41.00;;;;;;5020940;28;20739;-46
2021/12/05 18:50:20;;;;;;;5.75;3.80;;;23.50;40.90;;;;;;5023178;28;20037;-45
2021/12/05 18:52:46;;;;;;;7.57;3.95;;;23.50;40.80;;;;;;5022615;28;20036;-46
2021/12/05 18:55:17;;;;;;;5.85;3.47;;;23.60;40.70;;;;;;5023132;28;20048;-45
2021/12/05 18:57:45;;;;;;;9.02;4.55;;;23.50;40.50;;;;;;5020433;28;20056;-46
2021/12/05 19:00:24;;;;;;;7.90;3.67;;;23.50;40.30;;;;;;5022789;28;20036;-46
2021/12/05 19:05:46;;;;;;;5.93;3.20;;;23.50;40.20;;;;;;5021934;28;20560;-46
2021/12/05 19:13:23;;;;;;;5.88;3.13;;;23.50;40.00;;;;;;5022638;28;20055;-46
2021/12/05 19:15:49;;;;;;;6.80;3.20;;;23.50;39.90;;;;;;5022693;28;20033;-46